sensor_id;sensor_type;location;lat;lon;timestamp;pressure;altitude;pressure_sealevel;temperature;humidity
59063;BME280;44851;45.648;9.004;2022-12-07T00:00:50;98801.31;;;2.76;68.62
59063;BME280;44851;45.648;9.004;2022-12-07T00:03:15;98800.44;;;2.63;68.93
59063;BME280;44851;45.648;9.004;2022-12-07T00:05:41;98796.66;;;2.69;69.42
59063;BME280;44851;45.648;9.004;2022-12-07T00:08:06;98798.84;;;2.75;69.60
59063;BME280;44851;45.648;9.004;2022-12-07T00:10:33;98799.41;;;2.66;69.70
59063;BME280;44851;45.648;9.004;2022-12-07T00:12:59;98793.53;;;2.64;70.05
59063;BME280;44851;45.648;9.004;2022-12-07T00:15:24;98793.16;;;2.70;70.19
59063;BME280;44851;45.648;9.004;2022-12-07T00:17:50;98791.59;;;2.67;69.71
59063;BME280;44851;45.648;9.004;2022-12-07T00:20:15;98781.59;;;2.63;69.92
59063;BME280;44851;45.648;9.004;2022-12-07T00:22:41;98779.19;;;2.60;70.28
59063;BME280;44851;45.648;9.004;2022-12-07T00:25:06;98775.91;;;2.58;70.02
59063;BME280;44851;45.648;9.004;2022-12-07T00:27:32;98780.78;;;2.48;70.03
59063;BME280;44851;45.648;9.004;2022-12-07T00:29:57;98775.25;;;2.54;70.17
59063;BME280;44851;45.648;9.004;2022-12-07T00:32:22;98775.91;;;2.58;70.30
59063;BME280;44851;45.648;9.004;2022-12-07T00:34:48;98773.94;;;2.61;70.34
59063;BME280;44851;45.648;9.004;2022-12-07T00:37:13;98777.81;;;2.68;70.14
59063;BME280;44851;45.648;9.004;2022-12-07T00:39:39;98768.91;;;2.60;69.70
59063;BME280;44851;45.648;9.004;2022-12-07T00:42:04;98767.00;;;2.49;71.16
59063;BME280;44851;45.648;9.004;2022-12-07T00:44:29;98764.31;;;2.50;71.04
59063;BME280;44851;45.648;9.004;2022-12-07T00:46:55;98765.63;;;2.58;71.00
59063;BME280;44851;45.648;9.004;2022-12-07T00:49:21;98764.59;;;2.60;70.20
59063;BME280;44851;45.648;9.004;2022-12-07T00:51:48;98759.91;;;2.67;70.62
59063;BME280;44851;45.648;9.004;2022-12-07T00:54:14;98765.88;;;2.67;70.21
59063;BME280;44851;45.648;9.004;2022-12-07T00:56:39;98765.06;;;2.67;70.21
59063;BME280;44851;45.648;9.004;2022-12-07T00:59:05;98763.19;;;2.69;69.83
59063;BME280;44851;45.648;9.004;2022-12-07T01:01:33;98767.78;;;2.78;69.85
59063;BME280;44851;45.648;9.004;2022-12-07T01:03:59;98763.59;;;2.63;69.96
59063;BME280;44851;45.648;9.004;2022-12-07T01:06:28;98756.59;;;2.50;70.18
59063;BME280;44851;45.648;9.004;2022-12-07T01:08:54;98757.25;;;2.54;70.12
59063;BME280;44851;45.648;9.004;2022-12-07T01:11:22;98755.75;;;2.64;70.22
59063;BME280;44851;45.648;9.004;2022-12-07T01:13:52;98761.72;;;2.65;69.75
59063;BME280;44851;45.648;9.004;2022-12-07T01:16:19;98767.91;;;2.62;69.62
59063;BME280;44851;45.648;9.004;2022-12-07T01:18:49;98765.78;;;2.55;69.16
59063;BME280;44851;45.648;9.004;2022-12-07T01:21:19;98761.84;;;2.49;69.81
59063;BME280;44851;45.648;9.004;2022-12-07T01:23:46;98766.81;;;2.52;69.99
59063;BME280;44851;45.648;9.004;2022-12-07T01:26:14;98757.34;;;2.53;69.77
59063;BME280;44851;45.648;9.004;2022-12-07T01:28:40;98760.84;;;2.52;69.48
59063;BME280;44851;45.648;9.004;2022-12-07T01:31:13;98763.03;;;2.58;69.54
59063;BME280;44851;45.648;9.004;2022-12-07T01:33:44;98759.75;;;2.41;69.43
59063;BME280;44851;45.648;9.004;2022-12-07T01:38:46;98760.13;;;2.35;69.29
59063;BME280;44851;45.648;9.004;2022-12-07T01:41:13;98761.34;;;2.30;69.16
59063;BME280;44851;45.648;9.004;2022-12-07T01:44:13;98754.81;;;2.24;68.08
59063;BME280;44851;45.648;9.004;2022-12-07T01:46:40;98753.53;;;2.31;69.55
59063;BME280;44851;45.648;9.004;2022-12-07T01:49:09;98762.41;;;2.40;69.43
59063;BME280;44851;45.648;9.004;2022-12-07T01:51:38;98752.75;;;2.43;69.14
59063;BME280;44851;45.648;9.004;2022-12-07T01:54:05;98749.38;;;2.29;69.16
59063;BME280;44851;45.648;9.004;2022-12-07T01:56:31;98752.59;;;2.32;68.90
59063;BME280;44851;45.648;9.004;2022-12-07T01:58:58;98752.25;;;2.24;68.59
59063;BME280;44851;45.648;9.004;2022-12-07T02:01:25;98755.06;;;2.34;68.95
59063;BME280;44851;45.648;9.004;2022-12-07T02:03:52;98756.38;;;2.27;69.08
59063;BME280;44851;45.648;9.004;2022-12-07T02:06:21;98757.56;;;2.21;68.87
59063;BME280;44851;45.648;9.004;2022-12-07T02:08:48;98750.03;;;2.18;69.34
59063;BME280;44851;45.648;9.004;2022-12-07T02:11:15;98750.56;;;2.23;68.67
59063;BME280;44851;45.648;9.004;2022-12-07T02:13:42;98750.03;;;2.18;68.73
59063;BME280;44851;45.648;9.004;2022-12-07T02:22:04;98744.25;;;2.00;68.92
59063;BME280;44851;45.648;9.004;2022-12-07T02:30:14;98741.59;;;2.02;69.12
59063;BME280;44851;45.648;9.004;2022-12-07T02:35:33;98742.13;;;2.07;69.18
59063;BME280;44851;45.648;9.004;2022-12-07T02:38:14;98739.38;;;1.95;69.35
59063;BME280;44851;45.648;9.004;2022-12-07T02:40:53;98742.34;;;2.04;68.64
59063;BME280;44851;45.648;9.004;2022-12-07T02:43:25;98733.44;;;2.09;69.20
59063;BME280;44851;45.648;9.004;2022-12-07T02:45:54;98734.25;;;2.10;69.37
59063;BME280;44851;45.648;9.004;2022-12-07T02:48:21;98731.59;;;2.11;69.26
59063;BME280;44851;45.648;9.004;2022-12-07T02:50:52;98731.84;;;2.07;69.03
59063;BME280;44851;45.648;9.004;2022-12-07T02:53:38;98729.84;;;1.97;68.15
59063;BME280;44851;45.648;9.004;2022-12-07T03:07:01;98726.00;;;1.76;69.46
59063;BME280;44851;45.648;9.004;2022-12-07T03:09:50;98729.28;;;1.78;68.60
59063;BME280;44851;45.648;9.004;2022-12-07T03:12:24;98725.81;;;1.79;69.45
59063;BME280;44851;45.648;9.004;2022-12-07T03:15:12;98725.63;;;1.82;68.21
59063;BME280;44851;45.648;9.004;2022-12-07T03:17:40;98717.91;;;1.82;69.54
59063;BME280;44851;45.648;9.004;2022-12-07T03:20:11;98720.50;;;1.82;69.75
59063;BME280;44851;45.648;9.004;2022-12-07T03:22:39;98715.97;;;1.86;69.48
59063;BME280;44851;45.648;9.004;2022-12-07T03:25:10;98711.38;;;1.62;69.51
59063;BME280;44851;45.648;9.004;2022-12-07T03:28:02;98712.56;;;1.57;69.89
59063;BME280;44851;45.648;9.004;2022-12-07T03:30:30;98706.69;;;1.69;69.47
59063;BME280;44851;45.648;9.004;2022-12-07T03:33:04;98699.56;;;1.74;69.35
59063;BME280;44851;45.648;9.004;2022-12-07T03:35:37;98700.84;;;1.67;68.88
59063;BME280;44851;45.648;9.004;2022-12-07T03:38:19;98705.31;;;1.63;69.19
59063;BME280;44851;45.648;9.004;2022-12-07T03:41:12;98702.41;;;1.55;69.35
59063;BME280;44851;45.648;9.004;2022-12-07T03:43:35;98701.22;;;1.61;69.54
59063;BME280;44851;45.648;9.004;2022-12-07T03:46:23;98697.88;;;1.59;68.14
59063;BME280;44851;45.648;9.004;2022-12-07T03:52:00;98686.22;;;1.53;68.58
59063;BME280;44851;45.648;9.004;2022-12-07T03:54:36;98691.81;;;1.60;69.80
59063;BME280;44851;45.648;9.004;2022-12-07T03:57:05;98682.47;;;1.59;69.27
59063;BME280;44851;45.648;9.004;2022-12-07T03:59:31;98685.59;;;1.64;69.97
59063;BME280;44851;45.648;9.004;2022-12-07T04:02:02;98689.56;;;1.55;69.41
59063;BME280;44851;45.648;9.004;2022-12-07T04:04:28;98688.34;;;1.47;69.28
59063;BME280;44851;45.648;9.004;2022-12-07T04:06:54;98687.69;;;1.43;70.20
59063;BME280;44851;45.648;9.004;2022-12-07T04:09:20;98684.38;;;1.41;69.73
59063;BME280;44851;45.648;9.004;2022-12-07T04:11:46;98686.69;;;1.46;70.61
59063;BME280;44851;45.648;9.004;2022-12-07T04:14:11;98681.00;;;1.55;70.51
59063;BME280;44851;45.648;9.004;2022-12-07T04:16:56;98673.28;;;1.55;69.57
59063;BME280;44851;45.648;9.004;2022-12-07T04:19:26;98671.09;;;1.63;70.08
59063;BME280;44851;45.648;9.004;2022-12-07T04:21:53;98663.22;;;1.66;69.81
59063;BME280;44851;45.648;9.004;2022-12-07T04:24:19;98660.09;;;1.61;69.98
59063;BME280;44851;45.648;9.004;2022-12-07T04:26:45;98663.31;;;1.50;70.04
59063;BME280;44851;45.648;9.004;2022-12-07T04:29:11;98655.16;;;1.58;70.04
59063;BME280;44851;45.648;9.004;2022-12-07T04:31:37;98661.94;;;1.44;69.71
59063;BME280;44851;45.648;9.004;2022-12-07T04:34:03;98670.19;;;1.64;69.76
59063;BME280;44851;45.648;9.004;2022-12-07T04:36:29;98662.84;;;1.58;69.72
59063;BME280;44851;45.648;9.004;2022-12-07T04:38:55;98662.66;;;1.47;69.84
59063;BME280;44851;45.648;9.004;2022-12-07T04:41:22;98660.91;;;1.47;69.61
59063;BME280;44851;45.648;9.004;2022-12-07T04:43:58;98669.59;;;1.30;70.04
59063;BME280;44851;45.648;9.004;2022-12-07T04:46:24;98673.66;;;1.34;70.12
59063;BME280;44851;45.648;9.004;2022-12-07T04:48:51;98668.69;;;1.31;69.78
59063;BME280;44851;45.648;9.004;2022-12-07T04:51:20;98666.50;;;1.39;70.04
59063;BME280;44851;45.648;9.004;2022-12-07T04:53:46;98672.19;;;1.30;70.23
59063;BME280;44851;45.648;9.004;2022-12-07T04:56:14;98675.47;;;1.32;69.34
59063;BME280;44851;45.648;9.004;2022-12-07T04:58:40;98668.88;;;1.28;70.08
59063;BME280;44851;45.648;9.004;2022-12-07T05:01:06;98673.81;;;1.31;69.71
59063;BME280;44851;45.648;9.004;2022-12-07T05:03:32;98671.41;;;1.14;69.78
59063;BME280;44851;45.648;9.004;2022-12-07T05:05:57;98675.38;;;1.20;69.26
59063;BME280;44851;45.648;9.004;2022-12-07T05:08:22;98676.66;;;1.27;69.79
59063;BME280;44851;45.648;9.004;2022-12-07T05:10:49;98679.78;;;1.32;70.04
59063;BME280;44851;45.648;9.004;2022-12-07T05:13:14;98674.03;;;1.28;69.77
59063;BME280;44851;45.648;9.004;2022-12-07T05:15:40;98668.88;;;1.28;69.90
59063;BME280;44851;45.648;9.004;2022-12-07T05:18:05;98673.16;;;1.28;69.55
59063;BME280;44851;45.648;9.004;2022-12-07T05:20:31;98681.47;;;1.17;70.10
59063;BME280;44851;45.648;9.004;2022-12-07T05:22:56;98672.53;;;1.24;69.91
59063;BME280;44851;45.648;9.004;2022-12-07T05:25:23;98676.38;;;1.31;69.85
59063;BME280;44851;45.648;9.004;2022-12-07T05:27:49;98672.34;;;1.27;69.58
59063;BME280;44851;45.648;9.004;2022-12-07T05:30:14;98676.50;;;1.30;69.95
59063;BME280;44851;45.648;9.004;2022-12-07T05:32:40;98679.31;;;1.25;70.19
59063;BME280;44851;45.648;9.004;2022-12-07T05:35:06;98680.03;;;1.27;69.63
59063;BME280;44851;45.648;9.004;2022-12-07T05:37:31;98686.00;;;1.28;70.23
59063;BME280;44851;45.648;9.004;2022-12-07T05:39:57;98682.25;;;1.33;70.51
59063;BME280;44851;45.648;9.004;2022-12-07T05:42:22;98671.97;;;1.33;70.61
59063;BME280;44851;45.648;9.004;2022-12-07T05:44:47;98681.91;;;1.39;70.21
59063;BME280;44851;45.648;9.004;2022-12-07T05:47:14;98679.41;;;1.24;69.60
59063;BME280;44851;45.648;9.004;2022-12-07T05:49:40;98681.16;;;1.23;70.05
59063;BME280;44851;45.648;9.004;2022-12-07T05:52:05;98680.25;;;1.24;70.00
59063;BME280;44851;45.648;9.004;2022-12-07T05:54:31;98681.34;;;1.34;70.25
59063;BME280;44851;45.648;9.004;2022-12-07T05:56:57;98683.72;;;1.37;69.54
59063;BME280;44851;45.648;9.004;2022-12-07T05:59:23;98680.59;;;1.32;69.60
59063;BME280;44851;45.648;9.004;2022-12-07T06:02:04;98672.53;;;1.24;68.52
59063;BME280;44851;45.648;9.004;2022-12-07T06:04:32;98676.03;;;1.23;69.66
59063;BME280;44851;45.648;9.004;2022-12-07T06:06:58;98676.19;;;1.20;69.26
59063;BME280;44851;45.648;9.004;2022-12-07T06:09:25;98681.03;;;1.10;69.53
59063;BME280;44851;45.648;9.004;2022-12-07T06:11:51;98690.81;;;1.04;69.75
59063;BME280;44851;45.648;9.004;2022-12-07T06:14:35;98680.19;;;1.10;70.56
59063;BME280;44851;45.648;9.004;2022-12-07T06:17:00;98690.19;;;1.14;70.03
59063;BME280;44851;45.648;9.004;2022-12-07T06:19:26;98683.03;;;1.05;69.89
59063;BME280;44851;45.648;9.004;2022-12-07T06:21:52;98690.41;;;0.96;69.94
59063;BME280;44851;45.648;9.004;2022-12-07T06:24:18;98685.84;;;1.01;70.38
59063;BME280;44851;45.648;9.004;2022-12-07T06:26:44;98691.63;;;1.04;70.29
59063;BME280;44851;45.648;9.004;2022-12-07T06:29:10;98692.66;;;1.02;69.98
59063;BME280;44851;45.648;9.004;2022-12-07T06:31:37;98690.34;;;0.97;69.77
59063;BME280;44851;45.648;9.004;2022-12-07T06:34:05;98684.03;;;1.03;70.24
59063;BME280;44851;45.648;9.004;2022-12-07T06:36:31;98677.41;;;0.99;70.64
59063;BME280;44851;45.648;9.004;2022-12-07T06:38:57;98684.38;;;0.97;70.36
59063;BME280;44851;45.648;9.004;2022-12-07T06:41:22;98684.94;;;1.02;70.21
59063;BME280;44851;45.648;9.004;2022-12-07T06:43:48;98689.84;;;0.90;70.51
59063;BME280;44851;45.648;9.004;2022-12-07T06:46:14;98695.72;;;0.92;70.44
59063;BME280;44851;45.648;9.004;2022-12-07T06:48:40;98690.16;;;1.00;70.78
59063;BME280;44851;45.648;9.004;2022-12-07T06:51:06;98690.25;;;0.99;70.24
59063;BME280;44851;45.648;9.004;2022-12-07T06:53:32;98691.06;;;0.99;70.21
59063;BME280;44851;45.648;9.004;2022-12-07T06:55:57;98695.22;;;1.02;70.22
59063;BME280;44851;45.648;9.004;2022-12-07T06:58:23;98688.97;;;1.06;70.62
59063;BME280;44851;45.648;9.004;2022-12-07T07:00:49;98688.34;;;1.02;69.93
59063;BME280;44851;45.648;9.004;2022-12-07T07:03:15;98692.66;;;1.02;70.13
59063;BME280;44851;45.648;9.004;2022-12-07T07:05:42;98695.63;;;0.94;69.95
59063;BME280;44851;45.648;9.004;2022-12-07T07:08:07;98695.22;;;1.02;69.98
59063;BME280;44851;45.648;9.004;2022-12-07T07:10:33;98695.94;;;1.04;70.13
59063;BME280;44851;45.648;9.004;2022-12-07T07:12:58;98695.75;;;1.07;70.19
59063;BME280;44851;45.648;9.004;2022-12-07T07:15:24;98690.47;;;1.10;70.70
59063;BME280;44851;45.648;9.004;2022-12-07T07:17:49;98696.78;;;1.04;70.15
59063;BME280;44851;45.648;9.004;2022-12-07T07:20:15;98702.25;;;0.98;70.09
59063;BME280;44851;45.648;9.004;2022-12-07T07:22:40;98702.16;;;1.00;70.33
59063;BME280;44851;45.648;9.004;2022-12-07T07:25:06;98711.25;;;1.05;70.23
59063;BME280;44851;45.648;9.004;2022-12-07T07:27:32;98709.50;;;1.06;70.43
59063;BME280;44851;45.648;9.004;2022-12-07T07:29:57;98704.03;;;1.12;70.50
59063;BME280;44851;45.648;9.004;2022-12-07T07:32:22;98708.69;;;1.05;70.22
59063;BME280;44851;45.648;9.004;2022-12-07T07:34:48;98714.28;;;1.12;70.78
59063;BME280;44851;45.648;9.004;2022-12-07T07:37:14;98723.72;;;1.11;70.99
59063;BME280;44851;45.648;9.004;2022-12-07T07:39:39;98723.97;;;1.07;71.05
59063;BME280;44851;45.648;9.004;2022-12-07T07:42:06;98725.09;;;1.03;71.41
59063;BME280;44851;45.648;9.004;2022-12-07T07:44:33;98720.78;;;1.03;71.33
59063;BME280;44851;45.648;9.004;2022-12-07T07:46:59;98723.56;;;1.14;71.08
59063;BME280;44851;45.648;9.004;2022-12-07T07:49:24;98728.97;;;1.10;71.16
59063;BME280;44851;45.648;9.004;2022-12-07T07:51:50;98735.69;;;1.12;71.38
59063;BME280;44851;45.648;9.004;2022-12-07T07:54:16;98725.88;;;1.19;71.71
59063;BME280;44851;45.648;9.004;2022-12-07T07:56:41;98729.00;;;1.24;72.05
59063;BME280;44851;45.648;9.004;2022-12-07T07:59:06;98730.81;;;1.22;71.60
59063;BME280;44851;45.648;9.004;2022-12-07T08:01:32;98729.19;;;1.21;71.50
59063;BME280;44851;45.648;9.004;2022-12-07T08:03:57;98727.38;;;1.23;71.66
59063;BME280;44851;45.648;9.004;2022-12-07T08:06:23;98741.03;;;1.24;71.61
59063;BME280;44851;45.648;9.004;2022-12-07T08:08:48;98741.28;;;1.19;72.04
59063;BME280;44851;45.648;9.004;2022-12-07T08:11:14;98747.91;;;1.23;72.38
59063;BME280;44851;45.648;9.004;2022-12-07T08:13:39;98739.28;;;1.24;72.45
59063;BME280;44851;45.648;9.004;2022-12-07T08:16:07;98743.88;;;1.33;72.52
59063;BME280;44851;45.648;9.004;2022-12-07T08:18:40;98745.56;;;1.34;71.94
59063;BME280;44851;45.648;9.004;2022-12-07T08:21:07;98743.63;;;1.38;72.40
59063;BME280;44851;45.648;9.004;2022-12-07T08:23:34;98744.28;;;1.41;72.20
59063;BME280;44851;45.648;9.004;2022-12-07T08:26:04;98750.69;;;1.49;72.18
59063;BME280;44851;45.648;9.004;2022-12-07T08:28:30;98751.09;;;1.57;72.31
59063;BME280;44851;45.648;9.004;2022-12-07T08:31:00;98749.94;;;1.77;71.97
59063;BME280;44851;45.648;9.004;2022-12-07T08:33:26;98751.88;;;1.87;71.70
59063;BME280;44851;45.648;9.004;2022-12-07T08:35:51;98756.63;;;2.08;71.12
59063;BME280;44851;45.648;9.004;2022-12-07T08:38:16;98762.88;;;2.18;71.49
59063;BME280;44851;45.648;9.004;2022-12-07T08:40:42;98763.25;;;2.40;70.96
59063;BME280;44851;45.648;9.004;2022-12-07T08:43:07;98763.47;;;2.64;70.85
59063;BME280;44851;45.648;9.004;2022-12-07T08:45:33;98763.75;;;3.01;70.79
59063;BME280;44851;45.648;9.004;2022-12-07T08:48:10;98753.72;;;3.23;69.23
59063;BME280;44851;45.648;9.004;2022-12-07T08:50:37;98754.81;;;3.46;69.78
59063;BME280;44851;45.648;9.004;2022-12-07T08:53:04;98757.34;;;3.73;69.27
59063;BME280;44851;45.648;9.004;2022-12-07T08:55:31;98761.06;;;3.82;68.45
59063;BME280;44851;45.648;9.004;2022-12-07T08:57:58;98759.81;;;4.13;68.53
59063;BME280;44851;45.648;9.004;2022-12-07T09:00:24;98756.66;;;4.46;68.53
59063;BME280;44851;45.648;9.004;2022-12-07T09:02:51;98759.53;;;4.54;67.35
59063;BME280;44851;45.648;9.004;2022-12-07T09:05:16;98767.63;;;4.74;67.11
59063;BME280;44851;45.648;9.004;2022-12-07T09:07:43;98769.81;;;4.80;66.74
59063;BME280;44851;45.648;9.004;2022-12-07T09:10:10;98766.41;;;5.03;67.37
59063;BME280;44851;45.648;9.004;2022-12-07T09:12:35;98770.63;;;5.04;65.93
59063;BME280;44851;45.648;9.004;2022-12-07T09:15:01;98769.41;;;5.21;66.36
59063;BME280;44851;45.648;9.004;2022-12-07T09:17:27;98766.25;;;5.18;65.35
59063;BME280;44851;45.648;9.004;2022-12-07T09:19:53;98768.91;;;5.40;64.79
59063;BME280;44851;45.648;9.004;2022-12-07T09:22:18;98777.22;;;5.68;65.33
59063;BME280;44851;45.648;9.004;2022-12-07T09:24:43;98759.38;;;5.76;63.97
59063;BME280;44851;45.648;9.004;2022-12-07T09:27:11;98761.88;;;6.00;64.14
59063;BME280;44851;45.648;9.004;2022-12-07T09:29:36;98765.56;;;6.08;62.60
59063;BME280;44851;45.648;9.004;2022-12-07T09:32:02;98763.31;;;6.26;61.62
59063;BME280;44851;45.648;9.004;2022-12-07T09:34:30;98757.06;;;6.51;61.80
59063;BME280;44851;45.648;9.004;2022-12-07T09:36:56;98762.22;;;6.74;61.32
59063;BME280;44851;45.648;9.004;2022-12-07T09:39:22;98766.88;;;6.91;59.55
59063;BME280;44851;45.648;9.004;2022-12-07T09:41:47;98758.66;;;6.86;57.88
59063;BME280;44851;45.648;9.004;2022-12-07T09:44:16;98763.47;;;7.23;57.94
59063;BME280;44851;45.648;9.004;2022-12-07T09:46:44;98758.56;;;7.19;58.49
59063;BME280;44851;45.648;9.004;2022-12-07T09:49:31;98758.28;;;7.23;57.75
59063;BME280;44851;45.648;9.004;2022-12-07T09:52:18;98753.06;;;7.34;58.10
59063;BME280;44851;45.648;9.004;2022-12-07T09:54:48;98750.78;;;7.61;58.31
59063;BME280;44851;45.648;9.004;2022-12-07T09:57:14;98747.00;;;7.65;59.07
59063;BME280;44851;45.648;9.004;2022-12-07T09:59:40;98744.00;;;7.81;57.88
59063;BME280;44851;45.648;9.004;2022-12-07T10:02:42;98746.19;;;7.86;55.79
59063;BME280;44851;45.648;9.004;2022-12-07T10:05:18;98739.06;;;8.39;56.04
59063;BME280;44851;45.648;9.004;2022-12-07T10:07:44;98744.41;;;8.38;56.07
59063;BME280;44851;45.648;9.004;2022-12-07T10:10:24;98743.31;;;8.50;54.42
59063;BME280;44851;45.648;9.004;2022-12-07T10:12:59;98741.84;;;8.57;54.26
59063;BME280;44851;45.648;9.004;2022-12-07T10:15:52;98736.34;;;8.50;52.84
59063;BME280;44851;45.648;9.004;2022-12-07T10:20:47;98741.88;;;8.76;55.80
59063;BME280;44851;45.648;9.004;2022-12-07T10:23:17;98735.50;;;8.90;54.30
59063;BME280;44851;45.648;9.004;2022-12-07T10:25:44;98737.13;;;8.91;53.10
59063;BME280;44851;45.648;9.004;2022-12-07T10:28:16;98725.78;;;9.02;52.04
59063;BME280;44851;45.648;9.004;2022-12-07T10:30:59;98722.22;;;9.03;51.75
59063;BME280;44851;45.648;9.004;2022-12-07T10:35:59;98721.94;;;9.25;52.60
59063;BME280;44851;45.648;9.004;2022-12-07T10:38:27;98712.91;;;9.10;51.36
59063;BME280;44851;45.648;9.004;2022-12-07T10:41:06;98717.69;;;9.15;53.01
59063;BME280;44851;45.648;9.004;2022-12-07T10:43:32;98709.94;;;9.44;52.38
59063;BME280;44851;45.648;9.004;2022-12-07T10:54:25;98710.16;;;9.60;49.91
59063;BME280;44851;45.648;9.004;2022-12-07T10:59:52;98691.84;;;9.42;48.42
59063;BME280;44851;45.648;9.004;2022-12-07T11:11:09;98686.97;;;9.76;49.56
59063;BME280;44851;45.648;9.004;2022-12-07T11:21:57;98678.44;;;10.21;49.61
59063;BME280;44851;45.648;9.004;2022-12-07T11:24:40;98672.94;;;10.24;48.08
59063;BME280;44851;45.648;9.004;2022-12-07T11:29:59;98672.63;;;10.27;47.90
59063;BME280;44851;45.648;9.004;2022-12-07T11:37:46;98670.75;;;10.65;49.01
59063;BME280;44851;45.648;9.004;2022-12-07T11:40:20;98668.19;;;10.38;46.77
59063;BME280;44851;45.648;9.004;2022-12-07T11:45:42;98660.03;;;10.68;48.94
59063;BME280;44851;45.648;9.004;2022-12-07T11:48:35;98657.88;;;10.64;47.00
59063;BME280;44851;45.648;9.004;2022-12-07T11:51:06;98643.56;;;10.77;48.52
59063;BME280;44851;45.648;9.004;2022-12-07T11:53:37;98651.75;;;10.82;47.86
59063;BME280;44851;45.648;9.004;2022-12-07T11:59:02;98646.44;;;10.74;47.91
59063;BME280;44851;45.648;9.004;2022-12-07T12:04:19;98643.28;;;10.71;49.01
59063;BME280;44851;45.648;9.004;2022-12-07T12:06:51;98645.19;;;10.78;49.13
59063;BME280;44851;45.648;9.004;2022-12-07T12:31:09;98618.34;;;10.68;49.91
59063;BME280;44851;45.648;9.004;2022-12-07T12:33:37;98607.72;;;10.79;50.48
59063;BME280;44851;45.648;9.004;2022-12-07T12:51:56;98595.19;;;10.47;52.31
59063;BME280;44851;45.648;9.004;2022-12-07T12:54:34;98595.13;;;10.57;51.81
59063;BME280;44851;45.648;9.004;2022-12-07T12:57:26;98591.16;;;10.53;52.48
59063;BME280;44851;45.648;9.004;2022-12-07T13:02:32;98595.72;;;10.51;50.68
59063;BME280;44851;45.648;9.004;2022-12-07T13:23:29;98576.66;;;9.87;51.55
59063;BME280;44851;45.648;9.004;2022-12-07T13:25:58;98574.47;;;9.82;52.83
59063;BME280;44851;45.648;9.004;2022-12-07T13:28:26;98573.81;;;9.80;53.33
59063;BME280;44851;45.648;9.004;2022-12-07T13:33:30;98571.28;;;9.61;52.13
59063;BME280;44851;45.648;9.004;2022-12-07T13:35:56;98564.16;;;9.63;53.02
59063;BME280;44851;45.648;9.004;2022-12-07T13:38:31;98566.09;;;9.61;51.88
59063;BME280;44851;45.648;9.004;2022-12-07T13:43:48;98563.38;;;9.53;52.00
59063;BME280;44851;45.648;9.004;2022-12-07T13:46:13;98548.81;;;9.33;53.49
59063;BME280;44851;45.648;9.004;2022-12-07T13:48:49;98551.53;;;9.31;52.87
59063;BME280;44851;45.648;9.004;2022-12-07T13:51:24;98540.72;;;9.26;52.82
59063;BME280;44851;45.648;9.004;2022-12-07T13:53:54;98548.69;;;9.15;55.02
59063;BME280;44851;45.648;9.004;2022-12-07T13:56:32;98547.38;;;9.01;53.15
59063;BME280;44851;45.648;9.004;2022-12-07T13:58:59;98545.75;;;8.90;53.83
59063;BME280;44851;45.648;9.004;2022-12-07T14:01:25;98546.44;;;8.73;54.48
59063;BME280;44851;45.648;9.004;2022-12-07T14:03:51;98552.75;;;8.70;55.10
59063;BME280;44851;45.648;9.004;2022-12-07T14:06:18;98552.22;;;8.57;55.08
59063;BME280;44851;45.648;9.004;2022-12-07T14:08:44;98550.47;;;8.48;55.74
59063;BME280;44851;45.648;9.004;2022-12-07T14:11:15;98560.03;;;8.38;54.66
59063;BME280;44851;45.648;9.004;2022-12-07T14:13:53;98561.94;;;8.26;54.96
59063;BME280;44851;45.648;9.004;2022-12-07T14:16:32;98561.38;;;8.22;55.95
59063;BME280;44851;45.648;9.004;2022-12-07T14:18:59;98561.91;;;8.16;56.42
59063;BME280;44851;45.648;9.004;2022-12-07T14:21:28;98555.72;;;7.98;56.86
59063;BME280;44851;45.648;9.004;2022-12-07T14:24:15;98553.63;;;7.82;56.63
59063;BME280;44851;45.648;9.004;2022-12-07T14:26:42;98550.81;;;7.95;57.39
59063;BME280;44851;45.648;9.004;2022-12-07T14:29:32;98554.38;;;7.94;56.42
59063;BME280;44851;45.648;9.004;2022-12-07T14:32:17;98555.84;;;7.87;56.69
59063;BME280;44851;45.648;9.004;2022-12-07T14:35:09;98552.28;;;7.88;57.24
59063;BME280;44851;45.648;9.004;2022-12-07T14:37:39;98567.78;;;7.68;58.68
59063;BME280;44851;45.648;9.004;2022-12-07T14:40:05;98565.66;;;7.73;58.33
59063;BME280;44851;45.648;9.004;2022-12-07T14:42:33;98563.66;;;7.66;58.87
59063;BME280;44851;45.648;9.004;2022-12-07T14:44:59;98565.81;;;7.61;58.71
59063;BME280;44851;45.648;9.004;2022-12-07T14:47:26;98568.31;;;7.62;58.95
59063;BME280;44851;45.648;9.004;2022-12-07T14:49:51;98565.53;;;7.54;59.43
59063;BME280;44851;45.648;9.004;2022-12-07T14:52:20;98567.59;;;7.60;59.86
59063;BME280;44851;45.648;9.004;2022-12-07T14:54:47;98571.78;;;7.42;59.51
59063;BME280;44851;45.648;9.004;2022-12-07T14:57:12;98572.59;;;7.42;59.78
59063;BME280;44851;45.648;9.004;2022-12-07T14:59:38;98567.66;;;7.39;59.97
59063;BME280;44851;45.648;9.004;2022-12-07T15:02:04;98576.09;;;7.32;59.95
59063;BME280;44851;45.648;9.004;2022-12-07T15:04:30;98568.94;;;7.24;59.84
59063;BME280;44851;45.648;9.004;2022-12-07T15:06:58;98578.75;;;7.20;60.64
59063;BME280;44851;45.648;9.004;2022-12-07T15:09:24;98574.13;;;7.24;61.06
59063;BME280;44851;45.648;9.004;2022-12-07T15:11:49;98578.84;;;7.09;60.89
59063;BME280;44851;45.648;9.004;2022-12-07T15:14:14;98574.84;;;7.05;61.03
59063;BME280;44851;45.648;9.004;2022-12-07T15:16:42;98579.28;;;7.14;61.27
59063;BME280;44851;45.648;9.004;2022-12-07T15:19:18;98577.63;;;7.13;60.51
59063;BME280;44851;45.648;9.004;2022-12-07T15:21:48;98581.97;;;7.13;60.87
59063;BME280;44851;45.648;9.004;2022-12-07T15:24:13;98583.13;;;6.99;61.34
59063;BME280;44851;45.648;9.004;2022-12-07T15:26:39;98586.25;;;6.93;61.58
59063;BME280;44851;45.648;9.004;2022-12-07T15:29:06;98580.34;;;6.91;61.37
59063;BME280;44851;45.648;9.004;2022-12-07T15:31:31;98585.91;;;6.86;61.42
59063;BME280;44851;45.648;9.004;2022-12-07T15:33:57;98586.09;;;6.74;62.36
59063;BME280;44851;45.648;9.004;2022-12-07T15:36:25;98583.44;;;6.85;62.25
59063;BME280;44851;45.648;9.004;2022-12-07T15:38:50;98588.56;;;6.75;62.44
59063;BME280;44851;45.648;9.004;2022-12-07T15:41:16;98587.91;;;6.62;62.54
59063;BME280;44851;45.648;9.004;2022-12-07T15:43:42;98588.00;;;6.72;62.04